TAF and METAR

METAR for Hanan International Airport

NIUE 251300Z 08002KT 9999 SCT018 SCT030 BKN110 23/22 Q1013
Report created 25. sep 15:00
wind 2 knots from E (080°) visibility > 10km scattered clouds (~50% cover) at 1800 feet scattered clouds (~50% cover) at 3000 feet broken clouds (~75% cover) at 11000 feet Temperature 23° with dewpoint at 22° (Humidity 94.12%) Pressure 1013 hPa

TAF for Hanan International Airport

TAF NIUE 251130Z 2512/2612 14005KT 9999 SCT018 SCT045
Report created 25. sep 13:30

between 25. sep 14:00 - 26. sep 14:00

wind 5 knots from SE (140°) visibility > 10km scattered clouds (~50% cover) at 1800 feet scattered clouds (~50% cover) at 4500 feet